Aiolos — V7LT3 — position and weather

sailwx.info

Track history (hours):
 
Tides and Currents Weather Stations Pressure Air Temp Water Temp Dewpoint Dewpoint Depression Visibility Wind Speed Wind Dir Waves Ship Positions

Aiolos

Last reported at 2018-Apr-25 00:23 UTC. Time now 2018-Apr-25 02:53 UTC.
Position N 45°19' W 000°47'.

Length 184 m; draft 10.3 m.

Type: Ship. MMSI: 538002804.

Date/timePositionNaut miles runAvg speedWind from/ knotsBaromVisibWave heightAir tempDewpointWater temp
2018-Apr-25 00:23N 45°19' W 000°47'410.6
2018-Apr-25 00:00N 45°23' W 000°49'5 9.9
2018-Apr-24 23:30N 45°27' W 000°54'713.8
2018-Apr-24 23:00N 45°32' W 001°00'714.6
2018-Apr-24 22:30N 45°38' W 001°06'713.3
2018-Apr-24 22:00N 45°39' W 001°16'612.9
2018-Apr-24 21:30N 45°36' W 001°24'2 1.1
2018-Apr-24 19:28N 45°36' W 001°27'0 0.0
2018-Apr-24 18:13N 45°36' W 001°27'0 0.1
2018-Apr-24 16:49N 45°36' W 001°27'0 0.0
2018-Apr-24 10:12N 45°36' W 001°27'1 2.7
2018-Apr-24 09:57N 45°35' W 001°27'1511.8
2018-Apr-24 08:39N 45°30' W 001°47'513.5
2018-Apr-24 08:19N 45°29' W 001°54'413.6
2018-Apr-24 07:59N 45°28' W 001°60'713.5
2018-Apr-24 07:30N 45°26' W 002°09'49810.8
2018-Apr-22 09:10N 39°27' W 009°57'213.2
2018-Apr-22 09:00N 39°25' W 009°57'612.9
2018-Apr-22 08:31N 39°18' W 009°57'712.9
2018-Apr-22 08:00N 39°12' W 009°57'613.0
2018-Apr-22 07:31N 39°05' W 009°57'712.9
2018-Apr-22 07:00N 38°59' W 009°57'612.9
2018-Apr-22 06:30N 38°52' W 009°57'612.7
2018-Apr-22 06:00N 38°46' W 009°57'612.5
2018-Apr-22 05:30N 38°40' W 009°56'612.7
2018-Apr-22 05:00N 38°34' W 009°53'613.0
2018-Apr-22 04:30N 38°30' W 009°47'612.6
2018-Apr-22 04:00N 38°26' W 009°41'612.2
2018-Apr-22 03:31N 38°22' W 009°34'612.4
2018-Apr-22 03:00N 38°18' W 009°28'612.5
2018-Apr-22 02:30N 38°14' W 009°22'612.4
2018-Apr-22 02:00N 38°10' W 009°16'612.4
2018-Apr-22 01:30N 38°07' W 009°10'613.0
2018-Apr-22 01:00N 38°03' W 009°03'612.8
2018-Apr-22 00:30N 37°59' W 008°57'4 8.0
2018-Apr-22 00:00N 37°56' W 008°53'1 1.8
2018-Apr-21 23:28N 37°57' W 008°53'0 0.0
2018-Apr-21 22:58N 37°57' W 008°53'0 0.0
2018-Apr-21 22:28N 37°57' W 008°53'0 0.0
2018-Apr-21 21:58N 37°57' W 008°53'0 0.0
2018-Apr-21 21:28N 37°57' W 008°53'0 0.0
2018-Apr-21 20:58N 37°57' W 008°53'0 0.0
2018-Apr-21 20:28N 37°57' W 008°53'0 0.0
2018-Apr-21 19:58N 37°57' W 008°53'0 0.0
2018-Apr-21 19:28N 37°57' W 008°53'0 0.0
2018-Apr-21 18:58N 37°57' W 008°53'0 0.0
2018-Apr-21 18:28N 37°57' W 008°53'0 0.0
2018-Apr-21 17:58N 37°57' W 008°53'0 0.0
2018-Apr-21 17:28N 37°57' W 008°53'0 0.0
2018-Apr-21 16:58N 37°57' W 008°53'0 0.0
2018-Apr-21 16:28N 37°57' W 008°53'0 0.0
2018-Apr-21 15:58N 37°57' W 008°53'0 0.0
2018-Apr-21 15:28N 37°57' W 008°53'0 0.0
2018-Apr-21 14:58N 37°57' W 008°53'0 0.0
2018-Apr-21 14:28N 37°57' W 008°53'0 0.0
2018-Apr-21 13:58N 37°57' W 008°53'0 0.0
2018-Apr-21 13:28N 37°57' W 008°53'0 0.0
2018-Apr-21 12:58N 37°57' W 008°53'0 0.0
2018-Apr-21 12:28N 37°57' W 008°53'0 0.0
2018-Apr-21 11:58N 37°57' W 008°53'0 0.0
2018-Apr-21 11:28N 37°57' W 008°53'0 0.0
2018-Apr-21 10:58N 37°57' W 008°53'0 0.0
2018-Apr-21 10:28N 37°57' W 008°53'0 0.0
2018-Apr-21 09:58N 37°57' W 008°53'0 0.0
2018-Apr-21 09:28N 37°57' W 008°53'0 0.0
2018-Apr-21 08:58N 37°57' W 008°53'0 0.0
2018-Apr-21 08:28N 37°57' W 008°53'0 0.0
2018-Apr-21 07:58N 37°57' W 008°53'0 0.0
2018-Apr-21 07:28N 37°57' W 008°53'0 0.0
2018-Apr-21 06:58N 37°57' W 008°53'0 0.0
2018-Apr-21 06:28N 37°57' W 008°53'0 0.0
2018-Apr-21 05:58N 37°57' W 008°53'0 0.0
2018-Apr-21 05:28N 37°57' W 008°53'0 0.0
2018-Apr-21 04:58N 37°57' W 008°53'0 0.0
2018-Apr-21 04:28N 37°57' W 008°53'0 0.0
2018-Apr-21 04:00N 37°57' W 008°53'0 0.0
2018-Apr-21 03:30N 37°57' W 008°53'0 0.0
2018-Apr-21 03:00N 37°57' W 008°53'0 0.0
2018-Apr-21 02:30N 37°57' W 008°53'0 0.0
2018-Apr-21 02:00N 37°57' W 008°53'0 0.0
2018-Apr-21 01:30N 37°57' W 008°53'0 0.0
2018-Apr-21 01:00N 37°57' W 008°53'0 0.0
2018-Apr-21 00:30N 37°57' W 008°53'0 0.0
2018-Apr-21 00:00N 37°57' W 008°53'0 0.0
2018-Apr-20 23:30N 37°57' W 008°53'0 0.0
2018-Apr-20 23:00N 37°57' W 008°53'0 0.0
2018-Apr-20 22:30N 37°57' W 008°53'0 0.0
2018-Apr-20 22:00N 37°57' W 008°53'0 0.0
2018-Apr-20 21:30N 37°57' W 008°53'0 0.0
2018-Apr-20 21:00N 37°57' W 008°53'0 0.7
2018-Apr-20 20:30N 37°57' W 008°53'2 4.3
2018-Apr-20 20:00N 37°54' W 008°53'2 4.0
2018-Apr-20 19:30N 37°53' W 008°52'0 0.4
2018-Apr-20 19:00N 37°53' W 008°53'0 0.1
2018-Apr-20 18:30N 37°53' W 008°53'0 0.0
2018-Apr-20 17:57N 37°53' W 008°53'0 0.1
2018-Apr-20 17:30N 37°53' W 008°53'0 0.0
2018-Apr-20 16:57N 37°53' W 008°53'0 0.2
2018-Apr-20 16:30N 37°53' W 008°53'0 0.4
2018-Apr-20 16:00N 37°53' W 008°52'0 0.1
2018-Apr-20 15:30N 37°53' W 008°52'0 0.0
2018-Apr-20 15:00N 37°53' W 008°52'0 0.1
2018-Apr-20 14:30N 37°53' W 008°52'0 0.1
2018-Apr-20 14:00N 37°53' W 008°52'0 0.1
2018-Apr-20 13:30N 37°53' W 008°52'0 0.0
2018-Apr-20 13:00N 37°53' W 008°52'0 0.0
2018-Apr-20 12:30N 37°53' W 008°52'0 0.1
2018-Apr-20 12:00N 37°53' W 008°52'0 0.1
2018-Apr-20 11:30N 37°53' W 008°52'0 0.1
2018-Apr-20 11:00N 37°53' W 008°52'0 0.5
2018-Apr-20 10:30N 37°53' W 008°53'0 0.0
2018-Apr-20 10:00N 37°53' W 008°53'0 0.1
2018-Apr-20 09:30N 37°53' W 008°53'0 0.1
2018-Apr-20 09:00N 37°53' W 008°53'0 0.1
2018-Apr-20 08:30N 37°53' W 008°52'0 0.7
2018-Apr-20 08:00N 37°53' W 008°52'3 6.8
2018-Apr-20 07:30N 37°50' W 008°54'611.7
2018-Apr-20 07:00N 37°45' W 008°59'713.4
2018-Apr-20 06:30N 37°42' W 009°06'4 7.2
2018-Apr-20 06:00N 37°38' W 009°08'3 5.2
2018-Apr-20 05:30N 37°37' W 009°06'3 5.5
2018-Apr-20 05:00N 37°35' W 009°03'2 3.9
2018-Apr-20 04:29N 37°33' W 009°02'3 5.4
2018-Apr-20 04:00N 37°35' W 009°04'3 5.6
2018-Apr-20 03:30N 37°37' W 009°07'3 5.6
2018-Apr-20 03:00N 37°39' W 009°09'3 5.7
2018-Apr-20 02:30N 37°41' W 009°12'3 5.5
2018-Apr-20 02:00N 37°42' W 009°14'3 5.8
2018-Apr-20 01:30N 37°44' W 009°17'3 6.1
2018-Apr-20 01:00N 37°46' W 009°20'3 6.1
2018-Apr-20 00:30N 37°49' W 009°23'3 5.9
2018-Apr-20 00:00N 37°51' W 009°25'3 5.9
2018-Apr-19 23:30N 37°53' W 009°27'1 2.6
2018-Apr-19 22:59N 37°52' W 009°29'2 4.5
2018-Apr-19 22:30N 37°50' W 009°27'2 4.5
2018-Apr-19 22:00N 37°49' W 009°25'2 4.5
2018-Apr-19 21:30N 37°48' W 009°22'2 4.7
2018-Apr-19 21:00N 37°46' W 009°20'611.7
2018-Apr-19 20:30N 37°41' W 009°16'612.6
2018-Apr-19 20:00N 37°37' W 009°10'3 5.5
2018-Apr-19 19:30N 37°35' W 009°08'2 4.7
2018-Apr-19 19:00N 37°33' W 009°05'2 4.9
2018-Apr-19 18:30N 37°32' W 009°03'1 1.5
2018-Apr-19 18:00N 37°32' W 009°04'3 6.0
2018-Apr-19 17:30N 37°34' W 009°07'3 6.4
2018-Apr-19 17:00N 37°36' W 009°09'3 6.6
2018-Apr-19 16:30N 37°38' W 009°12'3 6.7
2018-Apr-19 16:00N 37°41' W 009°16'3 6.8
2018-Apr-19 15:30N 37°43' W 009°19'3 6.5
2018-Apr-19 15:00N 37°45' W 009°22'3 6.3
2018-Apr-19 14:30N 37°47' W 009°25'3 6.5
2018-Apr-19 14:00N 37°50' W 009°27'1 1.7
2018-Apr-19 13:30N 37°49' W 009°28'2 4.4
2018-Apr-19 13:00N 37°48' W 009°26'2 4.5
2018-Apr-19 12:29N 37°46' W 009°24'2 4.7
2018-Apr-19 12:00N 37°44' W 009°22'2 4.8
2018-Apr-19 11:30N 37°43' W 009°20'2 4.8
2018-Apr-19 11:00N 37°41' W 009°18'2 4.7
2018-Apr-19 10:30N 37°39' W 009°16'2 4.8
2018-Apr-19 10:00N 37°38' W 009°14'3 5.2
2018-Apr-19 09:30N 37°36' W 009°11'3 6.9
2018-Apr-19 09:00N 37°34' W 009°08'3 5.1
2018-Apr-19 08:30N 37°31' W 009°08'5 9.6
2018-Apr-19 08:00N 37°34' W 009°12'3 5.8
2018-Apr-19 07:30N 37°36' W 009°15'3 5.8
2018-Apr-19 07:00N 37°38' W 009°18'3 5.7
2018-Apr-19 06:30N 37°40' W 009°20'3 5.6
2018-Apr-19 06:00N 37°42' W 009°23'3 5.8
2018-Apr-19 05:30N 37°44' W 009°25'3 5.7
2018-Apr-19 05:00N 37°46' W 009°28'3 5.7
2018-Apr-19 04:30N 37°48' W 009°30'1 2.6
2018-Apr-19 03:59N 37°50' W 009°30'3 5.4
2018-Apr-19 03:30N 37°50' W 009°27'3 5.5
2018-Apr-19 03:00N 37°50' W 009°23'3 5.6
2018-Apr-19 02:30N 37°50' W 009°20'3 5.4
2018-Apr-19 02:00N 37°50' W 009°17'3 5.0
2018-Apr-19 01:30N 37°51' W 009°13'3 5.1
2018-Apr-19 01:00N 37°51' W 009°10'3 5.0
2018-Apr-19 00:30N 37°52' W 009°07'612.1
2018-Apr-19 00:00N 37°54' W 008°60'5 9.9
2018-Apr-18 23:30N 37°51' W 008°54'713.4
2018-Apr-18 23:00N 37°45' W 008°57'713.6
2018-Apr-18 22:30N 37°38' W 009°00'713.6
2018-Apr-18 22:00N 37°32' W 009°04'713.2
2018-Apr-18 21:30N 37°26' W 009°08'713.4
2018-Apr-18 21:00N 37°20' W 009°11'713.3
2018-Apr-18 20:30N 37°14' W 009°15'913.8
2018-Apr-18 19:53N 37°06' W 009°19'7912.0
2018-Apr-18 13:15N 36°25' W 007°54'11513.3
2018-Apr-18 04:36N 35°57' W 005°36'113.2
2018-Apr-18 04:31N 35°58' W 005°34'612.8
2018-Apr-18 04:00N 36°00' W 005°27'5 9.2
2018-Apr-18 03:31N 36°04' W 005°23'3 6.3
2018-Apr-18 03:01N 36°07' W 005°22'0 0.6
2018-Apr-18 02:29N 36°07' W 005°22'0 0.1
2018-Apr-18 01:59N 36°07' W 005°21'0 0.0
2018-Apr-18 01:14N 36°07' W 005°21'0 0.1
2018-Apr-18 00:59N 36°07' W 005°22'0 0.0
2018-Apr-18 00:26N 36°07' W 005°22'0 0.1
2018-Apr-17 23:59N 36°07' W 005°22'0 0.0
2018-Apr-17 23:29N 36°07' W 005°22'0 0.0
2018-Apr-17 22:56N 36°07' W 005°22'0 0.0
2018-Apr-17 22:29N 36°07' W 005°22'0 0.0
2018-Apr-17 21:59N 36°07' W 005°22'0 0.0
2018-Apr-17 21:29N 36°07' W 005°22'0 0.0
2018-Apr-17 20:56N 36°07' W 005°22'0 0.0
2018-Apr-17 20:29N 36°07' W 005°22'0 0.0
2018-Apr-17 19:59N 36°07' W 005°22'0 0.0
2018-Apr-17 19:23N 36°07' W 005°22'0 0.0
2018-Apr-17 18:59N 36°07' W 005°22'0 0.1
2018-Apr-17 18:29N 36°07' W 005°22'0 0.0
2018-Apr-17 17:59N 36°07' W 005°22'0 0.2
2018-Apr-17 17:29N 36°07' W 005°21'0 1.0
2018-Apr-17 17:00N 36°07' W 005°21'2 4.8
2018-Apr-17 16:30N 36°06' W 005°18'3 5.2
2018-Apr-17 16:00N 36°08' W 005°16'1 2.2
2018-Apr-17 15:30N 36°07' W 005°17'319 8.4
2018-Apr-16 01:31N 36°48' E 001°17'013.1
2018-Apr-16 01:30N 36°48' E 001°18'713.1
2018-Apr-16 01:00N 36°50' E 001°25'1812.9
2018-Apr-15 23:34N 36°53' E 001°48'112.9
2018-Apr-15 23:30N 36°53' E 001°49'612.7
2018-Apr-15 23:00N 36°55' E 001°57'612.6
2018-Apr-15 22:30N 36°57' E 002°04'1312.6
2018-Apr-15 21:30N 36°59' E 002°20'612.5
2018-Apr-15 20:59N 36°60' E 002°28'612.7
2018-Apr-15 20:30N 37°00' E 002°35'712.9
2018-Apr-15 19:59N 37°01' E 002°44'612.9
2018-Apr-15 19:30N 37°02' E 002°51'612.8
2018-Apr-15 19:00N 37°03' E 002°59'612.0
2018-Apr-15 18:30N 37°04' E 003°07'611.9
2018-Apr-15 18:00N 37°04' E 003°14'  
Track history (hours):
 
Tides and Currents Weather Stations Pressure Air Temp Water Temp Dewpoint Dewpoint Depression Visibility Wind Speed Wind Dir Waves Ship Positions

Aiolos

Last reported at 2018-Apr-25 00:23 UTC. Time now 2018-Apr-25 02:53 UTC.
Position N 45°19' W 000°47'.

Length 184 m; draft 10.3 m.

Type: Ship. MMSI: 538002804.

Date/timePositionNaut miles runAvg speedWind from/ knotsBaromVisibWave heightAir tempDewpointWater temp
2018-Apr-25 00:23N 45°19' W 000°47'410.6
2018-Apr-25 00:00N 45°23' W 000°49'5 9.9
2018-Apr-24 23:30N 45°27' W 000°54'713.8
2018-Apr-24 23:00N 45°32' W 001°00'714.6
2018-Apr-24 22:30N 45°38' W 001°06'713.3
2018-Apr-24 22:00N 45°39' W 001°16'612.9
2018-Apr-24 21:30N 45°36' W 001°24'2 1.1
2018-Apr-24 19:28N 45°36' W 001°27'0 0.0
2018-Apr-24 18:13N 45°36' W 001°27'0 0.1
2018-Apr-24 16:49N 45°36' W 001°27'0 0.0
2018-Apr-24 10:12N 45°36' W 001°27'1 2.7
2018-Apr-24 09:57N 45°35' W 001°27'1511.8
2018-Apr-24 08:39N 45°30' W 001°47'513.5
2018-Apr-24 08:19N 45°29' W 001°54'413.6
2018-Apr-24 07:59N 45°28' W 001°60'713.5
2018-Apr-24 07:30N 45°26' W 002°09'49810.8
2018-Apr-22 09:10N 39°27' W 009°57'213.2
2018-Apr-22 09:00N 39°25' W 009°57'612.9
2018-Apr-22 08:31N 39°18' W 009°57'712.9
2018-Apr-22 08:00N 39°12' W 009°57'613.0
2018-Apr-22 07:31N 39°05' W 009°57'712.9
2018-Apr-22 07:00N 38°59' W 009°57'612.9
2018-Apr-22 06:30N 38°52' W 009°57'612.7
2018-Apr-22 06:00N 38°46' W 009°57'612.5
2018-Apr-22 05:30N 38°40' W 009°56'612.7
2018-Apr-22 05:00N 38°34' W 009°53'613.0
2018-Apr-22 04:30N 38°30' W 009°47'612.6
2018-Apr-22 04:00N 38°26' W 009°41'612.2
2018-Apr-22 03:31N 38°22' W 009°34'612.4
2018-Apr-22 03:00N 38°18' W 009°28'612.5
2018-Apr-22 02:30N 38°14' W 009°22'612.4
2018-Apr-22 02:00N 38°10' W 009°16'612.4
2018-Apr-22 01:30N 38°07' W 009°10'613.0
2018-Apr-22 01:00N 38°03' W 009°03'612.8
2018-Apr-22 00:30N 37°59' W 008°57'4 8.0
2018-Apr-22 00:00N 37°56' W 008°53'1 1.8
2018-Apr-21 23:28N 37°57' W 008°53'0 0.0
2018-Apr-21 22:58N 37°57' W 008°53'0 0.0
2018-Apr-21 22:28N 37°57' W 008°53'0 0.0
2018-Apr-21 21:58N 37°57' W 008°53'0 0.0
2018-Apr-21 21:28N 37°57' W 008°53'0 0.0
2018-Apr-21 20:58N 37°57' W 008°53'0 0.0
2018-Apr-21 20:28N 37°57' W 008°53'0 0.0
2018-Apr-21 19:58N 37°57' W 008°53'0 0.0
2018-Apr-21 19:28N 37°57' W 008°53'0 0.0
2018-Apr-21 18:58N 37°57' W 008°53'0 0.0
2018-Apr-21 18:28N 37°57' W 008°53'0 0.0
2018-Apr-21 17:58N 37°57' W 008°53'0 0.0
2018-Apr-21 17:28N 37°57' W 008°53'0 0.0
2018-Apr-21 16:58N 37°57' W 008°53'0 0.0
2018-Apr-21 16:28N 37°57' W 008°53'0 0.0
2018-Apr-21 15:58N 37°57' W 008°53'0 0.0
2018-Apr-21 15:28N 37°57' W 008°53'0 0.0
2018-Apr-21 14:58N 37°57' W 008°53'0 0.0
2018-Apr-21 14:28N 37°57' W 008°53'0 0.0
2018-Apr-21 13:58N 37°57' W 008°53'0 0.0
2018-Apr-21 13:28N 37°57' W 008°53'0 0.0
2018-Apr-21 12:58N 37°57' W 008°53'0 0.0
2018-Apr-21 12:28N 37°57' W 008°53'0 0.0
2018-Apr-21 11:58N 37°57' W 008°53'0 0.0
2018-Apr-21 11:28N 37°57' W 008°53'0 0.0
2018-Apr-21 10:58N 37°57' W 008°53'0 0.0
2018-Apr-21 10:28N 37°57' W 008°53'0 0.0
2018-Apr-21 09:58N 37°57' W 008°53'0 0.0
2018-Apr-21 09:28N 37°57' W 008°53'0 0.0
2018-Apr-21 08:58N 37°57' W 008°53'0 0.0
2018-Apr-21 08:28N 37°57' W 008°53'0 0.0
2018-Apr-21 07:58N 37°57' W 008°53'0 0.0
2018-Apr-21 07:28N 37°57' W 008°53'0 0.0
2018-Apr-21 06:58N 37°57' W 008°53'0 0.0
2018-Apr-21 06:28N 37°57' W 008°53'0 0.0
2018-Apr-21 05:58N 37°57' W 008°53'0 0.0
2018-Apr-21 05:28N 37°57' W 008°53'0 0.0
2018-Apr-21 04:58N 37°57' W 008°53'0 0.0
2018-Apr-21 04:28N 37°57' W 008°53'0 0.0
2018-Apr-21 04:00N 37°57' W 008°53'0 0.0
2018-Apr-21 03:30N 37°57' W 008°53'0 0.0
2018-Apr-21 03:00N 37°57' W 008°53'0 0.0
2018-Apr-21 02:30N 37°57' W 008°53'0 0.0
2018-Apr-21 02:00N 37°57' W 008°53'0 0.0
2018-Apr-21 01:30N 37°57' W 008°53'0 0.0
2018-Apr-21 01:00N 37°57' W 008°53'0 0.0
2018-Apr-21 00:30N 37°57' W 008°53'0 0.0
2018-Apr-21 00:00N 37°57' W 008°53'0 0.0
2018-Apr-20 23:30N 37°57' W 008°53'0 0.0
2018-Apr-20 23:00N 37°57' W 008°53'0 0.0
2018-Apr-20 22:30N 37°57' W 008°53'0 0.0
2018-Apr-20 22:00N 37°57' W 008°53'0 0.0
2018-Apr-20 21:30N 37°57' W 008°53'0 0.0
2018-Apr-20 21:00N 37°57' W 008°53'0 0.7
2018-Apr-20 20:30N 37°57' W 008°53'2 4.3
2018-Apr-20 20:00N 37°54' W 008°53'2 4.0
2018-Apr-20 19:30N 37°53' W 008°52'0 0.4
2018-Apr-20 19:00N 37°53' W 008°53'0 0.1
2018-Apr-20 18:30N 37°53' W 008°53'0 0.0
2018-Apr-20 17:57N 37°53' W 008°53'0 0.1
2018-Apr-20 17:30N 37°53' W 008°53'0 0.0
2018-Apr-20 16:57N 37°53' W 008°53'0 0.2
2018-Apr-20 16:30N 37°53' W 008°53'0 0.4
2018-Apr-20 16:00N 37°53' W 008°52'0 0.1
2018-Apr-20 15:30N 37°53' W 008°52'0 0.0
2018-Apr-20 15:00N 37°53' W 008°52'0 0.1
2018-Apr-20 14:30N 37°53' W 008°52'0 0.1
2018-Apr-20 14:00N 37°53' W 008°52'0 0.1
2018-Apr-20 13:30N 37°53' W 008°52'0 0.0
2018-Apr-20 13:00N 37°53' W 008°52'0 0.0
2018-Apr-20 12:30N 37°53' W 008°52'0 0.1
2018-Apr-20 12:00N 37°53' W 008°52'0 0.1
2018-Apr-20 11:30N 37°53' W 008°52'0 0.1
2018-Apr-20 11:00N 37°53' W 008°52'0 0.5
2018-Apr-20 10:30N 37°53' W 008°53'0 0.0
2018-Apr-20 10:00N 37°53' W 008°53'0 0.1
2018-Apr-20 09:30N 37°53' W 008°53'0 0.1
2018-Apr-20 09:00N 37°53' W 008°53'0 0.1
2018-Apr-20 08:30N 37°53' W 008°52'0 0.7
2018-Apr-20 08:00N 37°53' W 008°52'3 6.8
2018-Apr-20 07:30N 37°50' W 008°54'611.7
2018-Apr-20 07:00N 37°45' W 008°59'713.4
2018-Apr-20 06:30N 37°42' W 009°06'4 7.2
2018-Apr-20 06:00N 37°38' W 009°08'3 5.2
2018-Apr-20 05:30N 37°37' W 009°06'3 5.5
2018-Apr-20 05:00N 37°35' W 009°03'2 3.9
2018-Apr-20 04:29N 37°33' W 009°02'3 5.4
2018-Apr-20 04:00N 37°35' W 009°04'3 5.6
2018-Apr-20 03:30N 37°37' W 009°07'3 5.6
2018-Apr-20 03:00N 37°39' W 009°09'3 5.7
2018-Apr-20 02:30N 37°41' W 009°12'3 5.5
2018-Apr-20 02:00N 37°42' W 009°14'3 5.8
2018-Apr-20 01:30N 37°44' W 009°17'3 6.1
2018-Apr-20 01:00N 37°46' W 009°20'3 6.1
2018-Apr-20 00:30N 37°49' W 009°23'3 5.9
2018-Apr-20 00:00N 37°51' W 009°25'3 5.9
2018-Apr-19 23:30N 37°53' W 009°27'1 2.6
2018-Apr-19 22:59N 37°52' W 009°29'2 4.5
2018-Apr-19 22:30N 37°50' W 009°27'2 4.5
2018-Apr-19 22:00N 37°49' W 009°25'2 4.5
2018-Apr-19 21:30N 37°48' W 009°22'2 4.7
2018-Apr-19 21:00N 37°46' W 009°20'611.7
2018-Apr-19 20:30N 37°41' W 009°16'612.6
2018-Apr-19 20:00N 37°37' W 009°10'3 5.5
2018-Apr-19 19:30N 37°35' W 009°08'2 4.7
2018-Apr-19 19:00N 37°33' W 009°05'2 4.9
2018-Apr-19 18:30N 37°32' W 009°03'1 1.5
2018-Apr-19 18:00N 37°32' W 009°04'3 6.0
2018-Apr-19 17:30N 37°34' W 009°07'3 6.4
2018-Apr-19 17:00N 37°36' W 009°09'3 6.6
2018-Apr-19 16:30N 37°38' W 009°12'3 6.7
2018-Apr-19 16:00N 37°41' W 009°16'3 6.8
2018-Apr-19 15:30N 37°43' W 009°19'3 6.5
2018-Apr-19 15:00N 37°45' W 009°22'3 6.3
2018-Apr-19 14:30N 37°47' W 009°25'3 6.5
2018-Apr-19 14:00N 37°50' W 009°27'1 1.7
2018-Apr-19 13:30N 37°49' W 009°28'2 4.4
2018-Apr-19 13:00N 37°48' W 009°26'2 4.5
2018-Apr-19 12:29N 37°46' W 009°24'2 4.7
2018-Apr-19 12:00N 37°44' W 009°22'2 4.8
2018-Apr-19 11:30N 37°43' W 009°20'2 4.8
2018-Apr-19 11:00N 37°41' W 009°18'2 4.7
2018-Apr-19 10:30N 37°39' W 009°16'2 4.8
2018-Apr-19 10:00N 37°38' W 009°14'3 5.2
2018-Apr-19 09:30N 37°36' W 009°11'3 6.9
2018-Apr-19 09:00N 37°34' W 009°08'3 5.1
2018-Apr-19 08:30N 37°31' W 009°08'5 9.6
2018-Apr-19 08:00N 37°34' W 009°12'3 5.8
2018-Apr-19 07:30N 37°36' W 009°15'3 5.8
2018-Apr-19 07:00N 37°38' W 009°18'3 5.7
2018-Apr-19 06:30N 37°40' W 009°20'3 5.6
2018-Apr-19 06:00N 37°42' W 009°23'3 5.8
2018-Apr-19 05:30N 37°44' W 009°25'3 5.7
2018-Apr-19 05:00N 37°46' W 009°28'3 5.7
2018-Apr-19 04:30N 37°48' W 009°30'1 2.6
2018-Apr-19 03:59N 37°50' W 009°30'3 5.4
2018-Apr-19 03:30N 37°50' W 009°27'3 5.5
2018-Apr-19 03:00N 37°50' W 009°23'3 5.6
2018-Apr-19 02:30N 37°50' W 009°20'3 5.4
2018-Apr-19 02:00N 37°50' W 009°17'3 5.0
2018-Apr-19 01:30N 37°51' W 009°13'3 5.1
2018-Apr-19 01:00N 37°51' W 009°10'3 5.0
2018-Apr-19 00:30N 37°52' W 009°07'612.1
2018-Apr-19 00:00N 37°54' W 008°60'5 9.9
2018-Apr-18 23:30N 37°51' W 008°54'713.4
2018-Apr-18 23:00N 37°45' W 008°57'713.6
2018-Apr-18 22:30N 37°38' W 009°00'713.6
2018-Apr-18 22:00N 37°32' W 009°04'713.2
2018-Apr-18 21:30N 37°26' W 009°08'713.4
2018-Apr-18 21:00N 37°20' W 009°11'713.3
2018-Apr-18 20:30N 37°14' W 009°15'913.8
2018-Apr-18 19:53N 37°06' W 009°19'7912.0
2018-Apr-18 13:15N 36°25' W 007°54'11513.3
2018-Apr-18 04:36N 35°57' W 005°36'113.2
2018-Apr-18 04:31N 35°58' W 005°34'612.8
2018-Apr-18 04:00N 36°00' W 005°27'5 9.2
2018-Apr-18 03:31N 36°04' W 005°23'3 6.3
2018-Apr-18 03:01N 36°07' W 005°22'0 0.6
2018-Apr-18 02:29N 36°07' W 005°22'0 0.1
2018-Apr-18 01:59N 36°07' W 005°21'0 0.0
2018-Apr-18 01:14N 36°07' W 005°21'0 0.1
2018-Apr-18 00:59N 36°07' W 005°22'0 0.0
2018-Apr-18 00:26N 36°07' W 005°22'0 0.1
2018-Apr-17 23:59N 36°07' W 005°22'0 0.0
2018-Apr-17 23:29N 36°07' W 005°22'0 0.0
2018-Apr-17 22:56N 36°07' W 005°22'0 0.0
2018-Apr-17 22:29N 36°07' W 005°22'0 0.0
2018-Apr-17 21:59N 36°07' W 005°22'0 0.0
2018-Apr-17 21:29N 36°07' W 005°22'0 0.0
2018-Apr-17 20:56N 36°07' W 005°22'0 0.0
2018-Apr-17 20:29N 36°07' W 005°22'0 0.0
2018-Apr-17 19:59N 36°07' W 005°22'0 0.0
2018-Apr-17 19:23N 36°07' W 005°22'0 0.0
2018-Apr-17 18:59N 36°07' W 005°22'0 0.1
2018-Apr-17 18:29N 36°07' W 005°22'0 0.0
2018-Apr-17 17:59N 36°07' W 005°22'0 0.2
2018-Apr-17 17:29N 36°07' W 005°21'0 1.0
2018-Apr-17 17:00N 36°07' W 005°21'2 4.8
2018-Apr-17 16:30N 36°06' W 005°18'3 5.2
2018-Apr-17 16:00N 36°08' W 005°16'1 2.2
2018-Apr-17 15:30N 36°07' W 005°17'319 8.4
2018-Apr-16 01:31N 36°48' E 001°17'013.1
2018-Apr-16 01:30N 36°48' E 001°18'713.1
2018-Apr-16 01:00N 36°50' E 001°25'1812.9
2018-Apr-15 23:34N 36°53' E 001°48'112.9
2018-Apr-15 23:30N 36°53' E 001°49'612.7
2018-Apr-15 23:00N 36°55' E 001°57'612.6
2018-Apr-15 22:30N 36°57' E 002°04'1312.6
2018-Apr-15 21:30N 36°59' E 002°20'612.5
2018-Apr-15 20:59N 36°60' E 002°28'612.7
2018-Apr-15 20:30N 37°00' E 002°35'712.9
2018-Apr-15 19:59N 37°01' E 002°44'612.9
2018-Apr-15 19:30N 37°02' E 002°51'612.8
2018-Apr-15 19:00N 37°03' E 002°59'612.0
2018-Apr-15 18:30N 37°04' E 003°07'611.9
2018-Apr-15 18:00N 37°04' E 003°14'  

Dump ship's entire track history